createdAt,value
2023-01-06T00:00:36.951Z,5.60
2023-01-06T00:03:03.624Z,9.65
2023-01-06T00:05:30.820Z,7.68
2023-01-06T00:07:57.605Z,3.88
2023-01-06T00:10:24.471Z,4.72
2023-01-06T00:12:52.397Z,3.90
2023-01-06T00:15:19.624Z,4.60
2023-01-06T00:17:46.299Z,6.60
2023-01-06T00:20:13.331Z,8.88
2023-01-06T00:22:41.052Z,10.32
2023-01-06T00:25:10.203Z,15.43
2023-01-06T00:27:37.980Z,9.75
2023-01-06T00:30:05.541Z,11.18
2023-01-06T00:32:32.254Z,13.10
2023-01-06T00:34:58.860Z,11.45
2023-01-06T00:37:25.394Z,8.98
2023-01-06T00:39:51.838Z,7.68
2023-01-06T00:42:18.314Z,7.57
2023-01-06T00:44:44.846Z,9.50
2023-01-06T00:47:11.680Z,4.97
2023-01-06T00:49:38.242Z,6.40
2023-01-06T00:52:04.970Z,6.45
2023-01-06T00:54:31.538Z,7.03
2023-01-06T00:56:58.289Z,8.27
2023-01-06T00:59:26.248Z,7.43
2023-01-06T01:01:56.214Z,8.32
2023-01-06T01:04:24.092Z,7.13
2023-01-06T01:06:51.307Z,6.47
2023-01-06T01:09:22.092Z,6.40
2023-01-06T01:12:07.701Z,5.70
2023-01-06T01:14:35.138Z,9.10
2023-01-06T01:17:01.609Z,7.80
2023-01-06T01:19:28.908Z,8.93
2023-01-06T01:21:55.691Z,9.70
2023-01-06T01:24:22.702Z,9.95
2023-01-06T01:26:50.056Z,9.48
2023-01-06T01:29:17.968Z,9.05
2023-01-06T01:31:44.986Z,10.15
2023-01-06T01:34:13.212Z,11.23
2023-01-06T01:36:41.631Z,11.02
2023-01-06T01:39:09.125Z,9.02
2023-01-06T01:41:35.668Z,8.15
2023-01-06T01:44:23.634Z,11.02
2023-01-06T01:46:50.338Z,8.68
2023-01-06T01:49:20.860Z,14.15
2023-01-06T01:51:50.705Z,12.63
2023-01-06T01:54:22.228Z,17.45
2023-01-06T01:56:56.863Z,12.07
2023-01-06T01:59:27.672Z,15.40
2023-01-06T02:01:54.711Z,14.75
2023-01-06T02:04:24.522Z,13.40
2023-01-06T02:06:51.824Z,9.48
2023-01-06T02:09:55.965Z,10.32
2023-01-06T02:12:22.497Z,6.32
2023-01-06T02:14:48.989Z,9.15
2023-01-06T02:17:27.470Z,9.13
2023-01-06T02:20:10.632Z,6.82
2023-01-06T02:22:56.451Z,5.97
2023-01-06T02:26:08.188Z,7.18
2023-01-06T02:28:34.581Z,7.38
2023-01-06T02:31:38.575Z,8.05
2023-01-06T02:34:52.659Z,6.10
2023-01-06T02:37:33.974Z,6.38
2023-01-06T02:40:16.747Z,6.55
2023-01-06T02:42:46.569Z,7.13
2023-01-06T02:45:28.211Z,8.98
2023-01-06T02:48:10.737Z,5.80
2023-01-06T02:50:43.291Z,4.78
2023-01-06T02:53:30.845Z,6.40
2023-01-06T02:55:58.256Z,4.45
2023-01-06T02:58:27.491Z,5.35
2023-01-06T03:01:17.307Z,7.88
2023-01-06T03:03:47.952Z,4.82
2023-01-06T03:06:19.615Z,5.65
2023-01-06T03:08:49.256Z,4.90
2023-01-06T03:11:16.510Z,6.05
2023-01-06T03:14:02.977Z,4.18
2023-01-06T03:16:29.657Z,6.22
2023-01-06T03:18:56.880Z,6.15
2023-01-06T03:21:30.175Z,6.30
2023-01-06T03:23:57.115Z,5.75
2023-01-06T03:26:24.945Z,6.85
2023-01-06T03:28:51.464Z,8.93
2023-01-06T03:31:40.336Z,15.27
2023-01-06T03:34:26.462Z,12.77
2023-01-06T03:37:09.587Z,13.32
2023-01-06T03:39:49.542Z,12.30
2023-01-06T03:43:05.561Z,17.65
2023-01-06T03:45:53.580Z,14.63
2023-01-06T03:49:07.761Z,14.38
2023-01-06T03:51:47.853Z,10.57
2023-01-06T03:54:23.345Z,12.20
2023-01-06T03:57:22.216Z,8.77
2023-01-06T04:00:00.543Z,8.93
2023-01-06T04:02:27.947Z,9.32
2023-01-06T04:05:02.040Z,10.35
2023-01-06T04:07:28.544Z,10.13
2023-01-06T04:09:55.031Z,9.07
2023-01-06T04:12:39.401Z,9.15
2023-01-06T04:15:10.555Z,10.20
2023-01-06T04:17:39.118Z,9.35
2023-01-06T04:20:09.164Z,9.55
2023-01-06T04:22:36.126Z,9.25
2023-01-06T04:25:03.393Z,8.60
2023-01-06T04:27:29.864Z,8.52
2023-01-06T04:29:56.367Z,11.07
2023-01-06T04:32:23.073Z,8.35
2023-01-06T04:34:49.590Z,9.10
2023-01-06T04:37:16.166Z,8.60
2023-01-06T04:39:42.884Z,9.88
2023-01-06T04:42:09.747Z,10.15
2023-01-06T04:44:36.305Z,10.30
2023-01-06T04:47:02.903Z,9.10
2023-01-06T04:49:29.400Z,10.55
2023-01-06T04:51:55.877Z,7.85
2023-01-06T04:54:22.344Z,10.73
2023-01-06T04:56:48.927Z,8.68
2023-01-06T04:59:15.416Z,13.05
2023-01-06T05:01:42.046Z,7.55
2023-01-06T05:04:08.634Z,8.52
2023-01-06T05:06:35.563Z,7.50
2023-01-06T05:09:02.483Z,9.93
2023-01-06T05:11:29.044Z,7.88
2023-01-06T05:13:55.552Z,13.50
2023-01-06T05:16:27.410Z,10.73
2023-01-06T05:18:54.901Z,10.50
2023-01-06T05:21:22.185Z,10.27
2023-01-06T05:23:48.655Z,15.82
2023-01-06T05:26:20.178Z,13.27
2023-01-06T05:28:47.644Z,17.27
2023-01-06T05:31:14.706Z,12.85
2023-01-06T05:33:41.705Z,13.18
2023-01-06T05:36:11.048Z,13.55
2023-01-06T05:38:37.639Z,13.82
2023-01-06T05:41:04.469Z,12.48
2023-01-06T05:43:33.741Z,12.40
2023-01-06T05:46:05.965Z,15.27
2023-01-06T05:48:32.515Z,12.93
2023-01-06T05:51:07.449Z,15.23
2023-01-06T05:53:35.616Z,13.50
2023-01-06T05:56:07.498Z,14.63
2023-01-06T05:58:35.234Z,14.25
2023-01-06T06:01:02.674Z,10.90
2023-01-06T06:03:29.351Z,13.98
2023-01-06T06:05:55.951Z,16.25
2023-01-06T06:08:22.416Z,15.82
2023-01-06T06:10:48.947Z,12.05
2023-01-06T06:13:15.478Z,14.02
2023-01-06T06:15:41.974Z,11.32
2023-01-06T06:18:08.496Z,10.38
2023-01-06T06:20:35.034Z,11.80
2023-01-06T06:23:01.550Z,8.60
2023-01-06T06:25:29.427Z,12.75
2023-01-06T06:27:59.532Z,12.70
2023-01-06T06:30:26.115Z,14.65
2023-01-06T06:32:52.652Z,13.70
2023-01-06T06:35:19.217Z,13.35
2023-01-06T06:37:45.712Z,13.07
2023-01-06T06:40:12.599Z,14.77
2023-01-06T06:42:39.360Z,13.65
2023-01-06T06:45:06.543Z,14.15
2023-01-06T06:47:32.991Z,9.77
2023-01-06T06:49:59.493Z,11.65
2023-01-06T06:52:25.933Z,14.02
2023-01-06T06:54:52.467Z,11.90
2023-01-06T06:57:18.901Z,11.55
2023-01-06T06:59:45.353Z,11.80
2023-01-06T07:02:11.927Z,10.73
2023-01-06T07:04:38.563Z,11.13
2023-01-06T07:07:05.569Z,12.70
2023-01-06T07:09:32.081Z,11.23
2023-01-06T07:11:58.541Z,13.10
2023-01-06T07:14:25.001Z,13.48
2023-01-06T07:16:51.530Z,10.73
2023-01-06T07:19:17.964Z,10.82
2023-01-06T07:21:44.630Z,12.18
2023-01-06T07:24:11.213Z,10.93
2023-01-06T07:26:37.668Z,11.15
2023-01-06T07:29:04.101Z,11.13
2023-01-06T07:31:30.688Z,11.80
2023-01-06T07:33:57.242Z,11.30
2023-01-06T07:36:23.715Z,9.43
2023-01-06T07:38:50.155Z,11.00
2023-01-06T07:41:16.697Z,9.82
2023-01-06T07:43:43.164Z,9.32
2023-01-06T07:46:09.764Z,8.73
2023-01-06T07:48:36.960Z,8.32
2023-01-06T07:51:03.795Z,10.23
2023-01-06T07:53:30.490Z,9.27
2023-01-06T07:55:56.983Z,10.50
2023-01-06T07:58:26.364Z,10.77
2023-01-06T08:00:52.864Z,9.85
2023-01-06T08:03:19.382Z,12.75
2023-01-06T08:05:45.889Z,7.50
2023-01-06T08:08:12.823Z,9.57
2023-01-06T08:10:41.110Z,13.25
2023-01-06T08:13:08.772Z,10.20
2023-01-06T08:15:36.827Z,17.35
2023-01-06T08:18:03.450Z,10.65
2023-01-06T08:20:29.963Z,11.90
2023-01-06T08:22:58.086Z,10.90
2023-01-06T08:25:24.680Z,12.60
2023-01-06T08:27:51.379Z,12.32
2023-01-06T08:30:21.534Z,14.07
2023-01-06T08:32:48.940Z,16.65
2023-01-06T08:35:16.392Z,12.38
2023-01-06T08:37:43.185Z,16.50
2023-01-06T08:40:10.234Z,14.73
2023-01-06T08:42:36.744Z,13.77
2023-01-06T08:45:03.464Z,13.43
2023-01-06T08:47:29.949Z,14.38
2023-01-06T08:49:56.467Z,13.93
2023-01-06T08:52:22.943Z,15.65
2023-01-06T08:54:49.427Z,13.63
2023-01-06T08:57:16.400Z,11.95
2023-01-06T08:59:42.938Z,21.52
2023-01-06T09:02:12.561Z,12.32
2023-01-06T09:04:39.426Z,17.83
2023-01-06T09:07:05.978Z,16.20
2023-01-06T09:09:33.624Z,15.27
2023-01-06T09:12:00.339Z,17.70
2023-01-06T09:14:26.820Z,15.77
2023-01-06T09:16:53.456Z,22.75
2023-01-06T09:19:20.631Z,21.88
2023-01-06T09:21:47.178Z,13.98
2023-01-06T09:24:15.098Z,15.43
2023-01-06T09:26:41.965Z,18.50
2023-01-06T09:29:08.571Z,12.63
2023-01-06T09:31:35.143Z,13.70
2023-01-06T09:34:01.733Z,15.50
2023-01-06T09:36:28.362Z,12.70
2023-01-06T09:38:54.881Z,16.42
2023-01-06T09:41:51.789Z,15.10
2023-01-06T09:44:31.405Z,11.88
2023-01-06T09:47:00.478Z,13.02
2023-01-06T09:49:48.609Z,9.40
2023-01-06T09:52:51.851Z,11.52
2023-01-06T09:55:26.099Z,10.15
2023-01-06T09:57:59.104Z,10.15
2023-01-06T10:00:37.483Z,11.00
2023-01-06T10:03:05.511Z,8.23
2023-01-06T10:05:50.340Z,5.80
2023-01-06T10:08:30.056Z,0.70
2023-01-06T10:11:13.760Z,0.85
2023-01-06T10:16:31.636Z,1.10
2023-01-06T10:19:03.756Z,0.75
2023-01-06T10:21:42.134Z,0.50
2023-01-06T10:24:32.515Z,0.75
2023-01-06T10:27:14.546Z,0.55
2023-01-06T10:29:43.482Z,0.52
2023-01-06T10:32:16.486Z,0.50
2023-01-06T10:34:46.544Z,0.82
2023-01-06T10:37:21.086Z,0.47
2023-01-06T10:39:52.506Z,3.13
2023-01-06T10:43:07.304Z,0.80
2023-01-06T10:45:47.251Z,1.27
2023-01-06T10:48:17.071Z,1.95
2023-01-06T10:50:43.789Z,0.63
2023-01-06T10:53:12.462Z,0.65
2023-01-06T10:55:59.014Z,0.55
2023-01-06T10:58:45.452Z,0.73
2023-01-06T11:01:17.336Z,1.05
2023-01-06T11:03:45.598Z,0.57
2023-01-06T11:06:18.295Z,0.52
2023-01-06T11:08:44.949Z,0.60
2023-01-06T11:11:27.195Z,0.52
2023-01-06T11:14:00.943Z,0.38
2023-01-06T11:16:33.225Z,0.50
2023-01-06T11:19:06.277Z,0.60
2023-01-06T11:21:53.029Z,0.82
2023-01-06T11:24:23.066Z,0.50
2023-01-06T11:27:00.157Z,1.08
2023-01-06T11:29:32.587Z,0.50
2023-01-06T11:32:20.233Z,0.63
2023-01-06T11:34:56.282Z,0.40
2023-01-06T11:37:49.227Z,0.30
2023-01-06T11:40:29.904Z,1.25
2023-01-06T11:43:00.483Z,2.08
2023-01-06T11:45:35.339Z,0.80
2023-01-06T11:48:28.351Z,0.60
2023-01-06T11:50:58.147Z,0.85
2023-01-06T11:53:25.217Z,2.90
2023-01-06T11:56:14.500Z,1.20
2023-01-06T11:59:00.333Z,0.75
2023-01-06T12:01:33.444Z,1.30
2023-01-06T12:04:24.659Z,1.77
2023-01-06T12:06:58.909Z,0.63
2023-01-06T12:09:32.482Z,2.15
2023-01-06T12:12:05.233Z,0.40
2023-01-06T12:14:36.135Z,2.47
2023-01-06T12:17:11.891Z,0.88
2023-01-06T12:19:59.886Z,1.80
2023-01-06T12:22:56.661Z,0.73
2023-01-06T12:25:25.107Z,2.17
2023-01-06T12:28:09.368Z,5.68
2023-01-06T12:30:42.941Z,1.17
2023-01-06T12:33:44.313Z,1.30
2023-01-06T12:36:23.061Z,0.40
2023-01-06T12:39:11.842Z,0.40
2023-01-06T12:41:44.766Z,0.45
2023-01-06T12:44:36.013Z,0.65
2023-01-06T12:47:17.362Z,0.65
2023-01-06T12:50:14.885Z,0.38
2023-01-06T12:53:19.787Z,1.60
2023-01-06T12:56:02.377Z,0.47
2023-01-06T12:58:56.433Z,0.22
2023-01-06T13:01:50.913Z,0.75
2023-01-06T13:04:36.091Z,0.52
2023-01-06T13:07:17.043Z,0.20
2023-01-06T13:09:55.780Z,0.30
2023-01-06T13:12:59.041Z,0.88
2023-01-06T13:15:29.021Z,1.03
2023-01-06T13:18:07.221Z,0.40
2023-01-06T13:20:45.892Z,0.47
2023-01-06T13:23:21.319Z,0.60
2023-01-06T13:26:17.181Z,0.68
2023-01-06T13:29:19.350Z,1.05
2023-01-06T13:32:23.190Z,0.30
2023-01-06T13:35:10.898Z,0.30
2023-01-06T13:37:50.908Z,0.50
2023-01-06T13:40:20.981Z,0.50
2023-01-06T13:42:55.525Z,0.43
2023-01-06T13:45:29.027Z,0.40
2023-01-06T13:47:57.798Z,1.30
2023-01-06T13:50:25.869Z,1.55
2023-01-06T13:52:54.061Z,0.32
2023-01-06T13:55:38.745Z,1.92
2023-01-06T13:58:23.625Z,0.40
2023-01-06T14:01:12.538Z,0.77
2023-01-06T14:03:43.328Z,1.58
2023-01-06T14:06:32.597Z,1.20
2023-01-06T14:09:01.395Z,0.57
2023-01-06T14:11:37.805Z,1.00
2023-01-06T14:14:28.330Z,1.13
2023-01-06T14:16:56.498Z,2.30
2023-01-06T14:19:27.913Z,1.52
2023-01-06T14:22:12.024Z,2.22
2023-01-06T14:24:43.468Z,0.85
2023-01-06T14:27:12.500Z,1.42
2023-01-06T14:29:45.279Z,0.90
2023-01-06T14:32:14.431Z,0.60
2023-01-06T14:34:59.973Z,2.05
2023-01-06T14:37:52.855Z,0.65
2023-01-06T14:40:24.963Z,0.68
2023-01-06T14:42:53.081Z,2.83
2023-01-06T14:45:34.324Z,0.77
2023-01-06T14:48:12.893Z,1.08
2023-01-06T14:50:47.462Z,1.30
2023-01-06T14:53:21.964Z,1.10
2023-01-06T14:55:50.436Z,1.95
2023-01-06T14:58:39.119Z,1.40
2023-01-06T15:01:35.440Z,1.20
2023-01-06T15:04:03.654Z,1.77
2023-01-06T15:06:31.467Z,3.08
2023-01-06T15:09:20.406Z,1.38
2023-01-06T15:11:47.348Z,2.40
2023-01-06T15:14:26.023Z,1.20
2023-01-06T15:16:54.587Z,1.83
2023-01-06T15:19:21.618Z,1.15
2023-01-06T15:21:50.309Z,2.35
2023-01-06T15:24:24.457Z,1.15
2023-01-06T15:26:52.570Z,1.35
2023-01-06T15:29:21.669Z,1.40
2023-01-06T15:31:50.498Z,1.27
2023-01-06T15:34:21.297Z,1.33
2023-01-06T15:36:50.661Z,1.75
2023-01-06T15:39:24.684Z,2.80
2023-01-06T15:41:51.505Z,1.63
2023-01-06T15:44:27.658Z,1.88
2023-01-06T15:47:37.320Z,2.33
2023-01-06T15:50:07.710Z,1.40
2023-01-06T15:53:00.105Z,2.75
2023-01-06T15:55:32.624Z,1.55
2023-01-06T15:58:07.440Z,2.13
2023-01-06T16:00:45.496Z,1.10
2023-01-06T16:03:24.407Z,0.88
2023-01-06T16:05:57.653Z,0.80
2023-01-06T16:08:30.255Z,1.20
2023-01-06T16:11:12.986Z,2.55
2023-01-06T16:13:40.123Z,1.35
2023-01-06T16:16:26.301Z,1.55
2023-01-06T16:18:54.673Z,2.20
2023-01-06T16:21:31.847Z,2.28
2023-01-06T16:24:02.053Z,6.18
2023-01-06T16:26:32.124Z,0.98
2023-01-06T16:29:01.422Z,2.72
2023-01-06T16:31:34.028Z,1.95
2023-01-06T16:34:19.011Z,1.83
2023-01-06T16:36:45.522Z,2.75
2023-01-06T16:39:12.083Z,1.48
2023-01-06T16:41:38.569Z,1.40
2023-01-06T16:44:05.005Z,1.98
2023-01-06T16:46:31.579Z,1.38
2023-01-06T16:49:05.519Z,2.10
2023-01-06T16:51:32.017Z,1.83
2023-01-06T16:53:58.776Z,1.67
2023-01-06T16:56:25.263Z,1.73
2023-01-06T16:58:53.546Z,3.60
2023-01-06T17:01:22.291Z,1.95
2023-01-06T17:03:54.976Z,1.40
2023-01-06T17:06:25.045Z,2.77
2023-01-06T17:08:54.394Z,2.05
2023-01-06T17:11:26.733Z,1.95
2023-01-06T17:14:00.759Z,3.78
2023-01-06T17:16:36.037Z,2.70
2023-01-06T17:19:14.195Z,1.55
2023-01-06T17:21:41.009Z,1.27
2023-01-06T17:24:21.036Z,0.88
2023-01-06T17:26:55.189Z,1.38
2023-01-06T17:29:22.279Z,1.00
2023-01-06T17:31:52.023Z,4.03
2023-01-06T17:34:31.795Z,1.45
2023-01-06T17:37:03.682Z,2.30
2023-01-06T17:39:32.491Z,1.73
2023-01-06T17:42:08.229Z,1.75
2023-01-06T17:44:51.319Z,1.88
2023-01-06T17:47:17.765Z,1.10
2023-01-06T17:49:52.416Z,4.60
2023-01-06T17:52:22.702Z,1.88
2023-01-06T17:55:13.991Z,1.55
2023-01-06T17:57:42.254Z,2.90
2023-01-06T18:00:15.667Z,3.08
2023-01-06T18:05:26.014Z,2.67
2023-01-06T18:07:59.927Z,2.00
2023-01-06T18:10:26.456Z,1.83
2023-01-06T18:12:55.842Z,1.63
2023-01-06T18:15:33.549Z,2.30
2023-01-06T18:18:32.366Z,1.35
2023-01-06T18:21:17.145Z,1.90
2023-01-06T18:23:50.090Z,1.85
2023-01-06T18:26:31.978Z,1.63
2023-01-06T18:29:26.302Z,3.17
2023-01-06T18:31:54.079Z,3.13
2023-01-06T18:34:40.842Z,5.78
2023-01-06T18:37:07.532Z,1.58
2023-01-06T18:39:44.132Z,1.65
2023-01-06T18:42:23.214Z,3.25
2023-01-06T18:44:55.487Z,2.08
2023-01-06T18:47:23.867Z,2.40
2023-01-06T18:49:56.949Z,1.83
2023-01-06T18:52:40.116Z,2.08
2023-01-06T18:55:35.704Z,3.85
2023-01-06T18:58:26.966Z,3.55
2023-01-06T19:00:57.683Z,2.17
2023-01-06T19:03:39.204Z,1.90
2023-01-06T19:06:08.753Z,3.58
2023-01-06T19:08:38.057Z,1.30
2023-01-06T19:11:13.385Z,2.25
2023-01-06T19:13:39.954Z,1.27
2023-01-06T19:16:26.026Z,1.83
2023-01-06T19:18:53.048Z,1.15
2023-01-06T19:21:22.682Z,1.42
2023-01-06T19:23:49.214Z,1.00
2023-01-06T19:26:40.172Z,5.07
2023-01-06T19:29:12.675Z,1.77
2023-01-06T19:31:46.839Z,1.80
2023-01-06T19:34:15.746Z,2.13
2023-01-06T19:36:48.966Z,1.95
2023-01-06T19:39:26.294Z,1.95
2023-01-06T19:41:55.907Z,2.83
2023-01-06T19:44:33.616Z,1.58
2023-01-06T19:47:10.873Z,2.83
2023-01-06T19:49:40.371Z,1.10
2023-01-06T19:52:31.624Z,1.75
2023-01-06T19:55:16.480Z,2.00
2023-01-06T19:57:48.991Z,2.13
2023-01-06T20:00:22.916Z,0.90
2023-01-06T20:02:50.956Z,2.30
2023-01-06T20:05:18.816Z,1.45
2023-01-06T20:07:45.584Z,1.48
2023-01-06T20:10:12.182Z,1.70
2023-01-06T20:12:38.683Z,1.73
2023-01-06T20:15:06.806Z,1.85
2023-01-06T20:17:33.465Z,2.22
2023-01-06T20:19:59.954Z,3.22
2023-01-06T20:22:26.419Z,2.92
2023-01-06T20:24:52.966Z,0.88
2023-01-06T20:27:19.510Z,2.90
2023-01-06T20:29:45.947Z,4.22
2023-01-06T20:32:12.382Z,3.00
2023-01-06T20:34:38.845Z,1.92
2023-01-06T20:37:05.457Z,2.80
2023-01-06T20:39:31.918Z,2.05
2023-01-06T20:42:00.315Z,4.40
2023-01-06T20:44:26.840Z,2.97
2023-01-06T20:46:53.368Z,2.55
2023-01-06T20:49:20.562Z,1.38
2023-01-06T20:51:47.358Z,1.65
2023-01-06T20:54:13.962Z,3.00
2023-01-06T20:56:40.392Z,2.42
2023-01-06T20:59:06.870Z,2.53
2023-01-06T21:01:33.536Z,3.67
2023-01-06T21:04:00.164Z,1.65
2023-01-06T21:06:26.756Z,3.70
2023-01-06T21:08:53.205Z,3.05
2023-01-06T21:11:19.666Z,1.58
2023-01-06T21:13:46.253Z,1.98
2023-01-06T21:16:12.836Z,2.67
2023-01-06T21:18:39.419Z,2.00
2023-01-06T21:21:06.099Z,3.97
2023-01-06T21:23:32.562Z,2.42
2023-01-06T21:25:59.044Z,18.98
2023-01-06T21:28:25.593Z,17.50
2023-01-06T21:30:52.111Z,13.85
2023-01-06T21:33:21.275Z,5.15
2023-01-06T21:35:48.218Z,5.65
2023-01-06T21:38:14.736Z,4.95
2023-01-06T21:40:41.245Z,3.67
2023-01-06T21:43:09.045Z,3.58
2023-01-06T21:45:40.502Z,15.18
2023-01-06T21:48:08.414Z,9.15
2023-01-06T21:50:38.872Z,9.98
2023-01-06T21:53:07.013Z,4.38
2023-01-06T21:55:33.576Z,7.35
2023-01-06T21:58:01.035Z,6.82
2023-01-06T22:00:27.702Z,3.55
2023-01-06T22:02:54.638Z,4.43
2023-01-06T22:05:22.303Z,2.75
2023-01-06T22:07:51.910Z,2.50
2023-01-06T22:10:21.104Z,3.85
2023-01-06T22:12:50.284Z,3.10
2023-01-06T22:15:16.869Z,2.60
2023-01-06T22:17:43.579Z,3.55
2023-01-06T22:20:11.727Z,3.88
2023-01-06T22:22:39.077Z,1.80
2023-01-06T22:25:06.322Z,2.75
2023-01-06T22:27:32.881Z,2.17
2023-01-06T22:29:59.381Z,3.95
2023-01-06T22:32:27.632Z,2.00
2023-01-06T22:34:54.133Z,3.45
2023-01-06T22:37:20.611Z,4.93
2023-01-06T22:39:47.170Z,2.45
2023-01-06T22:42:13.726Z,2.55
2023-01-06T22:44:40.205Z,3.70
2023-01-06T22:47:06.818Z,2.65
2023-01-06T22:49:33.263Z,2.35
2023-01-06T22:51:59.824Z,4.63
2023-01-06T22:54:26.370Z,2.58
2023-01-06T22:56:52.908Z,3.35
2023-01-06T22:59:19.443Z,3.42
2023-01-06T23:01:46.066Z,4.65
2023-01-06T23:04:14.793Z,3.20
2023-01-06T23:06:41.282Z,4.70
2023-01-06T23:09:07.729Z,2.88
2023-01-06T23:11:36.854Z,4.57
2023-01-06T23:14:03.383Z,5.05
2023-01-06T23:16:30.178Z,6.05
2023-01-06T23:18:56.935Z,4.70
2023-01-06T23:21:25.105Z,3.35
2023-01-06T23:23:52.214Z,2.70
2023-01-06T23:26:43.275Z,3.83
2023-01-06T23:29:10.256Z,3.65
2023-01-06T23:31:42.509Z,3.72
2023-01-06T23:34:15.554Z,4.47
2023-01-06T23:36:42.704Z,5.13
2023-01-06T23:39:12.349Z,3.42
2023-01-06T23:41:39.328Z,3.65
2023-01-06T23:44:06.411Z,4.47
2023-01-06T23:46:38.400Z,5.97
2023-01-06T23:49:06.970Z,4.07
2023-01-06T23:51:33.955Z,4.80
2023-01-06T23:54:02.025Z,5.88
2023-01-06T23:56:30.668Z,4.65
2023-01-06T23:59:01.184Z,5.35
